Elk Springs, Colorado
Current Conditions -  °F | °C
As of 9:53 PM on Thursday 30 Oct 2014 (Local Time) from KEEO Reporting Station
Clear Clear  
Wind Chill: 38°   Ceiling: Unl
Heat Index: 42°   Visibility: 10mi
Dew Point: 29°   Wind: 7mph
Humidity: 60%   Direction: 70°ENE
Pressure: 30.32"   Gusts: NA
Location:  40.3181°N, 108.361°W
Report Text: KEEO 310353Z AUTO 07006KT 10SM CLR 06/M02 A3032 RMK AO2 SLP247 T00561017
Loading
Personal Weather Stations






























Interactive Weather Map
Tropical Storm Tracking
New forecast layout! Learn more

10-Day Weather Forecast

Advertisements
Track Severe Weather on mobile